createdAt,value
2018-08-06T00:00:31.523Z,49.51
2018-08-06T00:03:01.548Z,49.75
2018-08-06T00:05:31.421Z,50.38
2018-08-06T00:08:01.078Z,49.57
2018-08-06T00:10:31.221Z,50.65
2018-08-06T00:13:01.252Z,50.81
2018-08-06T00:15:31.047Z,50.12
2018-08-06T00:18:01.438Z,50.11
2018-08-06T00:20:31.412Z,49.90
2018-08-06T00:23:01.423Z,51.03
2018-08-06T00:25:31.320Z,50.56
2018-08-06T00:28:01.386Z,50.34
2018-08-06T00:30:31.049Z,50.85
2018-08-06T00:33:01.100Z,50.56
2018-08-06T00:35:30.992Z,50.08
2018-08-06T00:38:01.246Z,50.97
2018-08-06T00:40:31.256Z,50.17
2018-08-06T00:43:01.333Z,50.66
2018-08-06T00:45:31.347Z,50.46
2018-08-06T00:48:01.177Z,50.74
2018-08-06T00:50:31.133Z,50.77
2018-08-06T00:53:00.668Z,50.30
2018-08-06T00:55:30.496Z,50.47
2018-08-06T00:58:01.176Z,50.78
2018-08-06T01:00:31.281Z,50.70
2018-08-06T01:03:01.100Z,50.06
2018-08-06T01:05:30.617Z,50.82
2018-08-06T01:08:00.529Z,50.55
2018-08-06T01:10:30.040Z,50.91
2018-08-06T01:12:59.654Z,50.74
2018-08-06T01:15:29.437Z,51.26
2018-08-06T01:17:59.410Z,50.83
2018-08-06T01:20:29.187Z,51.46
2018-08-06T01:22:58.852Z,50.45
2018-08-06T01:25:28.698Z,51.28
2018-08-06T01:27:58.530Z,50.84
2018-08-06T01:30:28.167Z,50.79
2018-08-06T01:32:58.019Z,51.84
2018-08-06T01:35:27.826Z,51.90
2018-08-06T01:37:57.884Z,51.69
2018-08-06T01:40:27.784Z,51.91
2018-08-06T01:42:57.908Z,51.15
2018-08-06T01:45:27.967Z,51.42
2018-08-06T01:47:57.936Z,52.02
2018-08-06T01:50:27.879Z,52.07
2018-08-06T01:52:57.848Z,52.36
2018-08-06T01:55:27.729Z,52.38
2018-08-06T01:57:57.641Z,52.97
2018-08-06T02:00:27.593Z,52.37
2018-08-06T02:02:57.536Z,52.95
2018-08-06T02:05:27.207Z,53.06
2018-08-06T02:07:57.112Z,53.46
2018-08-06T02:10:27.095Z,52.30
2018-08-06T02:12:56.587Z,53.54
2018-08-06T02:15:26.090Z,54.06
2018-08-06T02:17:56.092Z,53.54
2018-08-06T02:20:25.942Z,54.70
2018-08-06T02:22:55.741Z,54.64
2018-08-06T02:25:25.588Z,53.88
2018-08-06T02:27:55.468Z,54.16
2018-08-06T02:30:25.059Z,54.23
2018-08-06T02:32:55.685Z,54.43
2018-08-06T02:35:25.650Z,54.67
2018-08-06T02:37:55.563Z,53.77
2018-08-06T02:40:25.596Z,54.41
2018-08-06T02:42:55.524Z,53.41
2018-08-06T02:45:25.684Z,54.13
2018-08-06T02:47:55.596Z,54.51
2018-08-06T02:50:25.499Z,54.56
2018-08-06T02:52:55.484Z,55.24
2018-08-06T02:55:25.513Z,55.81
2018-08-06T02:57:55.432Z,55.48
2018-08-06T03:00:25.366Z,55.27
2018-08-06T03:02:55.300Z,55.54
2018-08-06T03:05:25.267Z,54.93
2018-08-06T03:07:55.493Z,55.44
2018-08-06T03:10:25.517Z,56.16
2018-08-06T03:12:55.560Z,55.64
2018-08-06T03:15:25.394Z,55.89
2018-08-06T03:17:54.967Z,55.54
2018-08-06T03:20:24.922Z,56.33
2018-08-06T03:22:54.415Z,55.97
2018-08-06T03:25:24.331Z,55.95
2018-08-06T03:27:53.841Z,56.71
2018-08-06T03:30:23.922Z,57.37
2018-08-06T03:32:53.920Z,56.24
2018-08-06T03:35:23.799Z,57.46
2018-08-06T03:37:53.428Z,56.68
2018-08-06T03:40:23.352Z,57.90
2018-08-06T03:42:53.458Z,57.20
2018-08-06T03:45:23.314Z,58.20
2018-08-06T03:47:53.388Z,58.36
2018-08-06T03:50:23.289Z,57.90
2018-08-06T03:52:52.838Z,57.92
2018-08-06T03:55:22.781Z,57.03
2018-08-06T03:57:52.571Z,57.69
2018-08-06T04:00:22.541Z,57.77
2018-08-06T04:02:52.454Z,58.24
2018-08-06T04:05:21.872Z,57.59
2018-08-06T04:07:52.077Z,57.65
2018-08-06T04:10:22.032Z,58.14
2018-08-06T04:12:52.218Z,58.08
2018-08-06T04:15:22.296Z,57.87
2018-08-06T04:17:52.219Z,57.50
2018-08-06T04:20:22.077Z,57.87
2018-08-06T04:22:51.953Z,56.98
2018-08-06T04:25:22.178Z,57.12
2018-08-06T04:27:52.236Z,56.16
2018-08-06T04:30:22.224Z,56.10
2018-08-06T04:32:52.189Z,56.69
2018-08-06T04:35:21.684Z,56.01
2018-08-06T04:37:51.571Z,56.49
2018-08-06T04:40:21.101Z,56.47
2018-08-06T04:42:50.976Z,57.34
2018-08-06T04:45:21.123Z,57.60
2018-08-06T04:47:51.077Z,56.76
2018-08-06T04:50:21.025Z,56.28
2018-08-06T04:52:51.128Z,56.45
2018-08-06T04:55:20.976Z,55.65
2018-08-06T04:57:50.749Z,55.75
2018-08-06T05:00:20.834Z,55.41
2018-08-06T05:02:50.769Z,55.85
2018-08-06T05:05:20.715Z,55.23
2018-08-06T05:07:50.539Z,55.06
2018-08-06T05:10:20.570Z,55.16
2018-08-06T05:12:50.124Z,54.35
2018-08-06T05:17:39.662Z,54.97
2018-08-06T05:20:09.795Z,54.65
2018-08-06T05:22:39.801Z,53.88
2018-08-06T05:25:09.718Z,52.96
2018-08-06T05:27:39.486Z,53.18
2018-08-06T05:30:12.232Z,52.45
2018-08-06T05:32:42.303Z,51.81
2018-08-06T05:35:12.439Z,51.82
2018-08-06T05:37:42.464Z,51.59
2018-08-06T05:40:12.552Z,50.69
2018-08-06T05:42:42.492Z,50.36
2018-08-06T05:45:12.555Z,51.08
2018-08-06T05:47:42.440Z,49.94
2018-08-06T05:50:13.902Z,50.28
2018-08-06T05:52:43.908Z,49.60
2018-08-06T05:55:13.527Z,49.16
2018-08-06T05:57:43.309Z,49.04
2018-08-06T06:00:17.720Z,48.25
2018-08-06T06:02:48.068Z,48.43
2018-08-06T06:05:18.196Z,48.17
2018-08-06T06:07:47.763Z,47.94
2018-08-06T06:10:17.891Z,48.73
2018-08-06T06:12:47.695Z,49.35
2018-08-06T06:15:18.692Z,49.07
2018-08-06T06:17:48.324Z,48.12
2018-08-06T06:20:18.320Z,47.79
2018-08-06T06:22:48.224Z,47.00
2018-08-06T06:25:18.355Z,47.20
2018-08-06T06:27:48.177Z,47.45
2018-08-06T06:30:18.455Z,46.49
2018-08-06T06:32:48.585Z,45.02
2018-08-06T06:35:18.656Z,45.33
2018-08-06T06:37:48.697Z,46.12
2018-08-06T06:40:18.526Z,46.07
2018-08-06T06:42:48.649Z,45.98
2018-08-06T06:45:18.441Z,44.89
2018-08-06T06:47:48.819Z,45.16
2018-08-06T06:50:18.305Z,44.87
2018-08-06T06:52:48.174Z,44.38
2018-08-06T06:55:18.344Z,45.67
2018-08-06T06:57:48.230Z,44.86
2018-08-06T07:00:18.261Z,44.60
2018-08-06T07:02:48.362Z,44.40
2018-08-06T07:05:18.417Z,45.17
2018-08-06T07:07:48.447Z,44.83
2018-08-06T07:10:18.070Z,43.72
2018-08-06T07:12:48.268Z,43.57
2018-08-06T07:15:18.097Z,43.43
2018-08-06T07:17:49.333Z,43.26
2018-08-06T07:20:20.728Z,43.01
2018-08-06T07:22:51.200Z,43.47
2018-08-06T07:25:21.167Z,42.92
2018-08-06T07:27:51.048Z,43.26
2018-08-06T07:30:21.043Z,43.01
2018-08-06T07:32:50.970Z,43.02
2018-08-06T07:35:20.669Z,43.29
2018-08-06T07:37:50.912Z,42.88
2018-08-06T07:40:20.626Z,43.22
2018-08-06T07:42:50.377Z,43.13
2018-08-06T07:45:21.206Z,43.33
2018-08-06T07:47:51.899Z,42.50
2018-08-06T07:50:21.828Z,42.62
2018-08-06T07:52:52.417Z,43.49
2018-08-06T07:55:22.336Z,42.24
2018-08-06T07:57:52.295Z,42.67
2018-08-06T08:00:22.167Z,42.01
2018-08-06T08:02:52.355Z,43.04
2018-08-06T08:05:22.203Z,42.22
2018-08-06T08:07:52.144Z,42.85
2018-08-06T08:10:23.093Z,42.45
2018-08-06T08:12:53.370Z,41.70
2018-08-06T08:15:26.719Z,42.32
2018-08-06T08:17:58.266Z,41.89
2018-08-06T08:20:28.357Z,41.72
2018-08-06T08:22:58.736Z,41.75
2018-08-06T08:25:28.794Z,40.72
2018-08-06T08:27:58.692Z,40.01
2018-08-06T08:30:28.630Z,39.91
2018-08-06T08:32:58.521Z,39.75
2018-08-06T08:35:33.312Z,40.02
2018-08-06T08:38:03.238Z,39.81
2018-08-06T08:40:33.256Z,39.90
2018-08-06T08:43:03.456Z,39.82
2018-08-06T08:45:33.442Z,40.29
2018-08-06T08:48:03.278Z,39.64
2018-08-06T08:50:33.544Z,39.37
2018-08-06T08:53:03.412Z,38.93
2018-08-06T08:55:32.886Z,39.01
2018-08-06T08:58:02.929Z,39.10
2018-08-06T09:00:32.851Z,38.10
2018-08-06T09:03:02.733Z,38.74
2018-08-06T09:05:32.668Z,38.16
2018-08-06T09:08:02.684Z,37.59
2018-08-06T09:10:32.836Z,38.25
2018-08-06T09:13:02.902Z,38.57
2018-08-06T09:15:32.909Z,37.87
2018-08-06T09:18:03.172Z,38.08
2018-08-06T09:20:33.080Z,38.79
2018-08-06T09:23:03.000Z,37.57
2018-08-06T09:25:32.943Z,37.10
2018-08-06T09:28:03.050Z,38.02
2018-08-06T09:30:32.531Z,37.54
2018-08-06T09:33:02.791Z,36.55
2018-08-06T09:35:32.887Z,37.64
2018-08-06T09:38:02.784Z,37.96
2018-08-06T09:40:32.843Z,37.67
2018-08-06T09:43:02.905Z,36.74
2018-08-06T09:45:33.183Z,36.78
2018-08-06T09:48:02.774Z,36.85
2018-08-06T09:50:33.456Z,36.37
2018-08-06T09:53:03.584Z,37.21
2018-08-06T09:55:33.541Z,36.37
2018-08-06T09:58:03.917Z,36.78
2018-08-06T10:00:39.069Z,36.63
2018-08-06T10:03:08.976Z,36.20
2018-08-06T10:05:38.971Z,37.27
2018-08-06T10:08:08.850Z,36.37
2018-08-06T10:10:38.747Z,35.89
2018-08-06T10:13:19.431Z,36.01
2018-08-06T10:15:49.321Z,35.95
2018-08-06T10:18:19.365Z,36.40
2018-08-06T10:20:49.288Z,36.10
2018-08-06T10:23:19.297Z,35.16
2018-08-06T10:25:49.237Z,35.39
2018-08-06T10:28:18.865Z,35.03
2018-08-06T10:30:48.964Z,35.09
2018-08-06T10:33:18.449Z,35.35
2018-08-06T10:35:48.471Z,35.74
2018-08-06T10:38:18.488Z,35.82
2018-08-06T10:40:48.533Z,36.17
2018-08-06T10:43:18.419Z,35.41
2018-08-06T10:45:48.416Z,35.22
2018-08-06T10:48:18.500Z,34.67
2018-08-06T10:50:48.303Z,35.37
2018-08-06T10:53:18.287Z,35.44
2018-08-06T10:55:48.323Z,34.99
2018-08-06T10:58:18.366Z,35.53
2018-08-06T11:00:48.584Z,33.57
2018-08-06T11:03:18.897Z,33.92
2018-08-06T11:05:48.808Z,33.83
2018-08-06T11:08:18.674Z,34.62
2018-08-06T11:10:48.841Z,34.30
2018-08-06T11:13:18.334Z,33.74
2018-08-06T11:15:48.400Z,33.08
2018-08-06T11:18:18.473Z,34.15
2018-08-06T11:20:48.463Z,32.36
2018-08-06T11:23:18.412Z,33.49
2018-08-06T11:25:48.516Z,33.11
2018-08-06T11:28:18.657Z,32.37
2018-08-06T11:30:48.665Z,32.74
2018-08-06T11:33:18.286Z,33.04
2018-08-06T11:35:47.796Z,33.12
2018-08-06T11:38:17.864Z,32.46
2018-08-06T11:40:47.804Z,33.47
2018-08-06T11:43:17.826Z,31.37
2018-08-06T11:45:48.324Z,31.47
2018-08-06T11:48:18.382Z,31.06
2018-08-06T11:50:48.028Z,31.69
2018-08-06T11:53:18.032Z,32.43
2018-08-06T11:55:48.189Z,30.55
2018-08-06T11:58:18.195Z,30.72
2018-08-06T12:00:48.096Z,30.95
2018-08-06T12:03:18.274Z,31.24
2018-08-06T12:05:48.243Z,31.11
2018-08-06T12:08:18.351Z,30.20
2018-08-06T12:10:48.528Z,29.89
2018-08-06T12:13:18.407Z,28.66
2018-08-06T12:15:48.352Z,29.94
2018-08-06T12:18:18.267Z,29.59
2018-08-06T12:20:48.088Z,29.99
2018-08-06T12:23:18.112Z,29.76
2018-08-06T12:25:48.043Z,29.63
2018-08-06T12:28:17.799Z,28.43
2018-08-06T12:30:47.953Z,29.17
2018-08-06T12:33:17.878Z,29.05
2018-08-06T12:35:47.359Z,28.46
2018-08-06T12:38:17.244Z,27.92
2018-08-06T12:40:47.184Z,28.43
2018-08-06T12:43:17.151Z,27.88
2018-08-06T12:45:47.255Z,28.19
2018-08-06T12:48:16.848Z,29.23
2018-08-06T12:50:46.789Z,28.88
2018-08-06T12:53:16.755Z,30.17
2018-08-06T12:55:46.699Z,29.00
2018-08-06T12:58:16.937Z,29.77
2018-08-06T13:00:46.462Z,29.47
2018-08-06T13:03:16.381Z,29.27
2018-08-06T13:05:46.448Z,28.93
2018-08-06T13:08:16.606Z,29.37
2018-08-06T13:10:46.618Z,27.33
2018-08-06T13:13:16.536Z,26.44
2018-08-06T13:15:46.075Z,26.65
2018-08-06T13:18:16.260Z,26.57
2018-08-06T13:20:46.372Z,24.90
2018-08-06T13:23:15.882Z,24.67
2018-08-06T13:25:45.836Z,24.96
2018-08-06T13:28:15.665Z,24.92
2018-08-06T13:30:46.024Z,24.60
2018-08-06T13:33:16.025Z,23.99
2018-08-06T13:35:46.004Z,23.04
2018-08-06T13:38:16.076Z,24.61
2018-08-06T13:40:46.252Z,24.63
2018-08-06T13:43:16.384Z,24.67
2018-08-06T13:45:46.356Z,23.87
2018-08-06T13:48:16.070Z,23.30
2018-08-06T13:50:45.668Z,23.58
2018-08-06T13:53:15.252Z,22.93
2018-08-06T13:55:45.133Z,22.87
2018-08-06T13:58:15.661Z,23.17
2018-08-06T14:00:45.645Z,22.56
2018-08-06T14:03:16.208Z,22.20
2018-08-06T14:05:46.376Z,22.54
2018-08-06T14:08:17.455Z,22.04
2018-08-06T14:10:47.352Z,22.51
2018-08-06T14:13:17.590Z,22.36
2018-08-06T14:15:47.671Z,21.94
2018-08-06T14:18:17.763Z,22.19
2018-08-06T14:20:47.813Z,21.05
2018-08-06T14:23:18.287Z,21.34
2018-08-06T14:25:48.413Z,20.70
2018-08-06T14:28:18.488Z,20.46
2018-08-06T14:30:48.386Z,21.54
2018-08-06T14:33:18.452Z,20.98
2018-08-06T14:35:48.613Z,20.39
2018-08-06T14:38:18.602Z,20.45
2018-08-06T14:40:48.591Z,20.87
2018-08-06T14:43:18.053Z,20.58
2018-08-06T14:45:48.011Z,20.52
2018-08-06T14:48:18.408Z,20.35
2018-08-06T14:50:48.367Z,20.45
2018-08-06T14:53:17.960Z,19.60
2018-08-06T14:55:47.833Z,19.93
2018-08-06T14:58:17.789Z,20.92
2018-08-06T15:00:49.180Z,20.27
2018-08-06T15:03:19.161Z,20.33
2018-08-06T15:05:49.341Z,19.74
2018-08-06T15:08:19.776Z,19.64
2018-08-06T15:10:49.734Z,19.55
2018-08-06T15:13:19.833Z,19.70
2018-08-06T15:15:49.487Z,19.81
2018-08-06T15:18:19.807Z,20.26
2018-08-06T15:20:50.010Z,19.65
2018-08-06T15:23:19.893Z,20.71
2018-08-06T15:25:49.845Z,21.20
2018-08-06T15:28:19.650Z,21.80
2018-08-06T15:30:49.796Z,22.29
2018-08-06T15:33:20.041Z,21.71
2018-08-06T15:35:50.236Z,21.92
2018-08-06T15:38:20.098Z,23.18
2018-08-06T15:40:49.880Z,23.36
2018-08-06T15:43:19.848Z,24.19
2018-08-06T15:45:49.747Z,25.20
2018-08-06T15:48:19.928Z,25.45
2018-08-06T15:50:50.034Z,25.70
2018-08-06T15:53:20.057Z,24.39
2018-08-06T15:55:49.919Z,25.04
2018-08-06T15:58:20.136Z,25.38
2018-08-06T16:00:50.125Z,25.51
2018-08-06T16:03:20.128Z,25.10
2018-08-06T16:05:50.010Z,25.88
2018-08-06T16:08:19.609Z,25.92
2018-08-06T16:10:49.604Z,24.91
2018-08-06T16:13:19.409Z,24.96
2018-08-06T16:15:49.404Z,25.67
2018-08-06T16:18:19.401Z,26.21
2018-08-06T16:20:49.348Z,25.58
2018-08-06T16:23:19.326Z,25.35
2018-08-06T16:25:49.328Z,26.19
2018-08-06T16:28:19.551Z,26.15
2018-08-06T16:30:49.972Z,26.68
2018-08-06T16:33:19.908Z,26.86
2018-08-06T16:35:49.591Z,26.82
2018-08-06T16:38:19.742Z,27.12
2018-08-06T16:40:49.752Z,27.42
2018-08-06T16:43:20.126Z,26.37
2018-08-06T16:45:50.263Z,26.50
2018-08-06T16:48:20.300Z,26.15
2018-08-06T16:50:50.441Z,27.82
2018-08-06T16:53:20.066Z,26.06
2018-08-06T16:55:50.061Z,26.86
2018-08-06T16:58:19.825Z,27.30
2018-08-06T17:00:49.870Z,27.26
2018-08-06T17:03:20.053Z,26.89
2018-08-06T17:05:49.967Z,26.48
2018-08-06T17:08:20.203Z,26.37
2018-08-06T17:10:50.246Z,26.40
2018-08-06T17:13:20.628Z,26.55
2018-08-06T17:15:50.700Z,26.81
2018-08-06T17:18:20.854Z,27.76
2018-08-06T17:20:50.703Z,26.50
2018-08-06T17:23:20.827Z,27.29
2018-08-06T17:25:50.904Z,26.09
2018-08-06T17:28:20.875Z,26.52
2018-08-06T17:30:50.893Z,26.19
2018-08-06T17:33:20.921Z,26.69
2018-08-06T17:35:50.980Z,27.96
2018-08-06T17:38:20.994Z,27.00
2018-08-06T17:40:51.261Z,27.42
2018-08-06T17:43:21.581Z,27.65
2018-08-06T17:45:51.375Z,27.76
2018-08-06T17:48:21.255Z,28.07
2018-08-06T17:50:50.860Z,28.00
2018-08-06T17:53:20.501Z,28.33
2018-08-06T17:55:50.385Z,28.57
2018-08-06T17:58:20.403Z,28.15
2018-08-06T18:00:49.942Z,27.97
2018-08-06T18:03:19.920Z,27.41
2018-08-06T18:05:49.955Z,28.49
2018-08-06T18:08:19.628Z,27.27
2018-08-06T18:10:49.678Z,28.20
2018-08-06T18:13:19.399Z,28.52
2018-08-06T18:15:49.336Z,30.51
2018-08-06T18:18:19.233Z,28.40
2018-08-06T18:20:49.488Z,29.49
2018-08-06T18:23:19.503Z,29.16
2018-08-06T18:25:49.327Z,29.71
2018-08-06T18:28:19.278Z,29.00
2018-08-06T18:30:48.764Z,29.75
2018-08-06T18:33:18.854Z,29.34
2018-08-06T18:35:48.744Z,29.81
2018-08-06T18:38:18.619Z,30.13
2018-08-06T18:40:48.455Z,29.73
2018-08-06T18:43:18.471Z,30.39
2018-08-06T18:45:48.467Z,29.92
2018-08-06T18:48:18.468Z,30.39
2018-08-06T18:50:48.508Z,30.09
2018-08-06T18:53:18.379Z,30.84
2018-08-06T18:55:48.217Z,31.73
2018-08-06T18:58:18.286Z,32.79
2018-08-06T19:00:47.869Z,32.01
2018-08-06T19:03:17.928Z,33.65
2018-08-06T19:05:48.042Z,32.71
2018-08-06T19:08:17.937Z,33.67
2018-08-06T19:10:47.450Z,33.68
2018-08-06T19:13:22.512Z,33.94
2018-08-06T19:15:52.313Z,34.50
2018-08-06T19:18:27.442Z,36.41
2018-08-06T19:20:57.256Z,35.19
2018-08-06T19:23:27.345Z,36.24
2018-08-06T19:25:57.067Z,36.88
2018-08-06T19:28:26.592Z,36.88
2018-08-06T19:31:01.501Z,36.54
2018-08-06T19:33:31.386Z,38.07
2018-08-06T19:36:01.301Z,37.76
2018-08-06T19:38:31.437Z,37.90
2018-08-06T19:41:01.242Z,38.00
2018-08-06T19:43:36.263Z,37.40
2018-08-06T19:46:06.880Z,37.88
2018-08-06T19:48:37.318Z,37.55
2018-08-06T19:51:07.355Z,38.27
2018-08-06T19:53:37.444Z,37.17
2018-08-06T19:56:12.834Z,37.84
2018-08-06T19:58:42.864Z,37.25
2018-08-06T20:01:12.909Z,36.52
2018-08-06T20:03:42.818Z,37.10
2018-08-06T20:06:12.703Z,36.10
2018-08-06T20:08:43.281Z,36.69
2018-08-06T20:11:13.439Z,37.77
2018-08-06T20:13:43.210Z,37.13
2018-08-06T20:16:13.229Z,37.08
2018-08-06T20:18:43.286Z,37.68
2018-08-06T20:21:13.234Z,37.52
2018-08-06T20:23:42.747Z,37.23
2018-08-06T20:26:14.627Z,38.67
2018-08-06T20:28:46.207Z,37.34
2018-08-06T20:31:16.215Z,37.71
2018-08-06T20:33:47.534Z,38.19
2018-08-06T20:36:20.179Z,37.44
2018-08-06T20:38:51.622Z,37.51
2018-08-06T20:41:21.761Z,38.15
2018-08-06T20:43:51.817Z,36.54
2018-08-06T20:46:23.159Z,37.27
2018-08-06T20:48:55.373Z,38.67
2018-08-06T20:51:25.335Z,38.75
2018-08-06T20:53:55.164Z,37.95
2018-08-06T20:56:25.966Z,37.87
2018-08-06T20:58:55.892Z,37.47
2018-08-06T21:01:25.845Z,35.11
2018-08-06T21:03:56.181Z,37.48
2018-08-06T21:06:26.935Z,35.40
2018-08-06T21:08:57.006Z,36.90
2018-08-06T21:11:26.855Z,35.51
2018-08-06T21:13:56.746Z,35.75
2018-08-06T21:16:26.659Z,35.08
2018-08-06T21:18:56.764Z,35.37
2018-08-06T21:21:29.040Z,36.25
2018-08-06T21:23:59.031Z,35.41
2018-08-06T21:26:28.851Z,35.64
2018-08-06T21:28:58.852Z,35.22
2018-08-06T21:31:29.130Z,36.08
2018-08-06T21:33:59.633Z,35.60
2018-08-06T21:36:29.111Z,36.45
2018-08-06T21:38:59.553Z,35.89
2018-08-06T21:41:29.338Z,36.57
2018-08-06T21:43:58.797Z,35.58
2018-08-06T21:46:28.899Z,36.34
2018-08-06T21:48:58.885Z,35.81
2018-08-06T21:51:29.041Z,36.63
2018-08-06T21:53:59.017Z,35.90
2018-08-06T21:56:28.910Z,36.21
2018-08-06T21:58:59.009Z,36.59
2018-08-06T22:01:28.925Z,34.95
2018-08-06T22:03:58.937Z,34.25
2018-08-06T22:06:28.862Z,35.69
2018-08-06T22:08:58.708Z,34.77
2018-08-06T22:11:28.653Z,34.65
2018-08-06T22:13:58.721Z,34.45
2018-08-06T22:16:28.470Z,35.45
2018-08-06T22:18:58.356Z,34.94
2018-08-06T22:21:28.216Z,37.66
2018-08-06T22:23:58.107Z,36.84
2018-08-06T22:26:27.996Z,36.97
2018-08-06T22:28:57.764Z,37.00
2018-08-06T22:31:27.659Z,38.13
2018-08-06T22:33:57.650Z,37.76
2018-08-06T22:36:28.060Z,37.71
2018-08-06T22:38:58.166Z,37.22
2018-08-06T22:41:28.030Z,37.77
2018-08-06T22:43:58.074Z,37.80
2018-08-06T22:46:28.275Z,36.81
2018-08-06T22:48:58.315Z,37.83
2018-08-06T22:51:27.805Z,37.99
2018-08-06T22:53:57.732Z,37.46
2018-08-06T22:56:27.421Z,37.21
2018-08-06T22:58:57.526Z,36.25
2018-08-06T23:01:27.665Z,35.87
2018-08-06T23:03:57.832Z,36.50
2018-08-06T23:06:27.719Z,36.12
2018-08-06T23:08:57.623Z,36.39
2018-08-06T23:11:27.376Z,36.69
2018-08-06T23:13:57.512Z,36.93
2018-08-06T23:16:27.461Z,36.63
2018-08-06T23:18:57.369Z,37.15
2018-08-06T23:21:27.521Z,38.19
2018-08-06T23:23:57.405Z,37.55
2018-08-06T23:26:27.449Z,36.86
2018-08-06T23:28:57.079Z,36.65
2018-08-06T23:31:26.988Z,37.20
2018-08-06T23:33:56.667Z,36.72
2018-08-06T23:36:26.673Z,36.98
2018-08-06T23:38:57.040Z,37.14
2018-08-06T23:41:27.369Z,37.55
2018-08-06T23:43:56.841Z,38.44
2018-08-06T23:46:26.871Z,38.57
2018-08-06T23:48:56.640Z,38.57
2018-08-06T23:51:26.697Z,38.91
2018-08-06T23:53:56.746Z,39.12
2018-08-06T23:56:26.713Z,38.64
2018-08-06T23:58:56.557Z,39.54
